createdAt,value
2022-08-25T00:00:21.978Z,23.43
2022-08-25T00:03:04.717Z,23.50
2022-08-25T00:05:33.617Z,23.55
2022-08-25T00:08:02.734Z,23.38
2022-08-25T00:10:30.871Z,22.66
2022-08-25T00:12:59.264Z,21.99
2022-08-25T00:15:27.160Z,21.46
2022-08-25T00:17:55.268Z,21.04
2022-08-25T00:20:23.148Z,20.69
2022-08-25T00:22:51.493Z,20.57
2022-08-25T00:25:19.660Z,21.10
2022-08-25T00:27:48.729Z,21.60
2022-08-25T00:30:17.499Z,21.91
2022-08-25T00:32:52.568Z,22.14
2022-08-25T00:35:25.495Z,22.29
2022-08-25T00:37:53.432Z,22.37
2022-08-25T00:40:22.175Z,22.45
2022-08-25T00:42:50.186Z,22.54
2022-08-25T00:45:18.911Z,22.63
2022-08-25T00:47:47.353Z,22.70
2022-08-25T00:50:15.221Z,22.76
2022-08-25T00:52:50.030Z,22.85
2022-08-25T00:55:25.670Z,22.87
2022-08-25T00:58:15.250Z,22.88
2022-08-25T01:00:47.743Z,22.92
2022-08-25T01:03:16.215Z,22.91
2022-08-25T01:05:44.191Z,22.91
2022-08-25T01:08:12.466Z,22.90
2022-08-25T01:10:44.593Z,22.86
2022-08-25T01:13:36.970Z,22.30
2022-08-25T01:16:05.209Z,21.37
2022-08-25T01:18:48.572Z,20.79
2022-08-25T01:21:18.183Z,20.30
2022-08-25T01:23:46.947Z,19.93
2022-08-25T01:26:21.295Z,19.62
2022-08-25T01:29:19.110Z,19.31
2022-08-25T01:31:56.851Z,19.01
2022-08-25T01:34:26.865Z,19.12
2022-08-25T01:36:55.415Z,19.83
2022-08-25T01:39:23.828Z,20.40
2022-08-25T01:42:07.162Z,20.78
2022-08-25T01:44:40.526Z,21.06
2022-08-25T01:47:08.457Z,21.24
2022-08-25T01:49:36.588Z,21.39
2022-08-25T01:52:21.449Z,21.56
2022-08-25T01:54:49.460Z,21.73
2022-08-25T01:57:17.346Z,21.86
2022-08-25T01:59:45.672Z,21.97
2022-08-25T02:02:13.534Z,22.04
2022-08-25T02:04:44.440Z,22.11
2022-08-25T02:07:12.588Z,22.19
2022-08-25T02:09:40.482Z,22.25
2022-08-25T02:12:11.177Z,22.33
2022-08-25T02:14:39.002Z,22.38
2022-08-25T02:17:08.423Z,22.39
2022-08-25T02:19:36.273Z,22.01
2022-08-25T02:22:04.296Z,21.24
2022-08-25T02:24:32.186Z,20.58
2022-08-25T02:27:00.075Z,20.06
2022-08-25T02:29:27.991Z,19.62
2022-08-25T02:31:55.779Z,19.21
2022-08-25T02:34:24.078Z,18.86
2022-08-25T02:36:51.972Z,18.60
2022-08-25T02:39:19.848Z,18.84
2022-08-25T02:41:47.781Z,19.55
2022-08-25T02:44:15.744Z,20.02
2022-08-25T02:46:43.726Z,20.33
2022-08-25T02:49:11.580Z,20.53
2022-08-25T02:51:39.549Z,20.64
2022-08-25T02:54:07.396Z,20.76
2022-08-25T02:56:35.310Z,20.93
2022-08-25T02:59:03.479Z,21.06
2022-08-25T03:01:32.288Z,21.19
2022-08-25T03:04:01.797Z,21.28
2022-08-25T03:06:30.122Z,21.33
2022-08-25T03:08:58.056Z,21.38
2022-08-25T03:11:26.526Z,21.43
2022-08-25T03:13:54.848Z,21.49
2022-08-25T03:16:23.626Z,21.55
2022-08-25T03:18:55.872Z,21.61
2022-08-25T03:21:24.896Z,21.67
2022-08-25T03:23:53.067Z,21.72
2022-08-25T03:26:39.412Z,21.75
2022-08-25T03:29:07.338Z,21.72
2022-08-25T03:31:35.604Z,21.19
2022-08-25T03:34:03.655Z,20.42
2022-08-25T03:36:31.882Z,19.79
2022-08-25T03:39:00.435Z,19.30
2022-08-25T03:41:30.343Z,18.87
2022-08-25T03:43:59.773Z,18.53
2022-08-25T03:46:33.566Z,18.26
2022-08-25T03:49:02.667Z,18.00
2022-08-25T03:51:40.604Z,17.80
2022-08-25T03:54:09.365Z,18.29
2022-08-25T03:56:38.545Z,19.20
2022-08-25T03:59:09.283Z,19.91
2022-08-25T04:01:42.194Z,20.38
2022-08-25T04:04:10.653Z,20.73
2022-08-25T04:06:40.032Z,21.01
2022-08-25T04:09:08.113Z,21.27
2022-08-25T04:11:36.177Z,21.53
2022-08-25T04:14:04.978Z,21.77
2022-08-25T04:16:34.507Z,22.00
2022-08-25T04:19:06.168Z,21.77
2022-08-25T04:21:34.062Z,21.21
2022-08-25T04:24:01.987Z,20.83
2022-08-25T04:26:37.368Z,20.57
2022-08-25T04:29:07.023Z,20.44
2022-08-25T04:31:34.869Z,20.36
2022-08-25T04:34:04.050Z,20.35
2022-08-25T04:36:45.274Z,20.40
2022-08-25T04:39:21.418Z,20.54
2022-08-25T04:41:49.642Z,21.31
2022-08-25T04:44:17.681Z,22.19
2022-08-25T04:46:45.597Z,22.84
2022-08-25T04:49:13.442Z,23.41
2022-08-25T04:51:43.742Z,23.66
2022-08-25T04:54:21.795Z,23.44
2022-08-25T04:56:56.451Z,23.31
2022-08-25T04:59:29.461Z,23.34
2022-08-25T05:02:02.681Z,23.47
2022-08-25T05:04:31.184Z,23.65
2022-08-25T05:06:59.916Z,23.85
2022-08-25T05:09:28.261Z,24.02
2022-08-25T05:11:56.103Z,24.23
2022-08-25T05:14:26.274Z,24.48
2022-08-25T05:16:55.501Z,24.81
2022-08-25T05:19:24.270Z,25.24
2022-08-25T05:21:52.804Z,25.76
2022-08-25T05:24:21.069Z,26.30
2022-08-25T05:26:49.046Z,26.86
2022-08-25T05:29:16.888Z,27.43
2022-08-25T05:31:50.009Z,28.05
2022-08-25T05:34:19.659Z,28.69
2022-08-25T05:36:48.916Z,29.39
2022-08-25T05:39:16.773Z,30.18
2022-08-25T05:41:44.706Z,30.90
2022-08-25T05:44:15.863Z,31.56
2022-08-25T05:46:45.945Z,32.15
2022-08-25T05:49:13.910Z,32.61
2022-08-25T05:51:41.817Z,33.01
2022-08-25T05:54:10.260Z,33.34
2022-08-25T05:56:38.035Z,33.66
2022-08-25T05:59:09.329Z,34.03
2022-08-25T06:01:56.454Z,34.37
2022-08-25T06:04:24.557Z,34.70
2022-08-25T06:06:55.068Z,35.09
2022-08-25T06:09:23.169Z,35.47
2022-08-25T06:11:54.665Z,35.82
2022-08-25T06:14:24.054Z,36.16
2022-08-25T06:16:52.455Z,36.34
2022-08-25T06:19:21.423Z,36.57
2022-08-25T06:21:49.977Z,36.82
2022-08-25T06:24:17.706Z,37.09
2022-08-25T06:26:45.831Z,37.24
2022-08-25T06:29:16.455Z,37.23
2022-08-25T06:31:44.846Z,37.13
2022-08-25T06:34:13.859Z,37.21
2022-08-25T06:36:41.760Z,37.48
2022-08-25T06:39:10.636Z,37.87
2022-08-25T06:41:39.200Z,38.20
2022-08-25T06:44:07.146Z,38.59
2022-08-25T06:46:36.236Z,38.90
2022-08-25T06:49:08.277Z,39.12
2022-08-25T06:51:36.441Z,39.41
2022-08-25T06:54:05.759Z,39.72
2022-08-25T06:56:34.231Z,39.81
2022-08-25T06:59:03.602Z,39.96
2022-08-25T07:01:32.339Z,40.11
2022-08-25T07:04:03.102Z,40.28
2022-08-25T07:06:33.145Z,40.44
2022-08-25T07:09:01.593Z,40.61
2022-08-25T07:11:29.627Z,40.78
2022-08-25T07:13:57.565Z,40.90
2022-08-25T07:16:27.971Z,40.87
2022-08-25T07:19:00.213Z,40.80
2022-08-25T07:21:33.124Z,40.93
2022-08-25T07:24:03.546Z,41.21
2022-08-25T07:26:39.583Z,41.29
2022-08-25T07:29:17.768Z,41.34
2022-08-25T07:31:45.894Z,41.29
2022-08-25T07:34:32.700Z,41.27
2022-08-25T07:37:00.593Z,41.23
2022-08-25T07:39:29.049Z,41.19
2022-08-25T07:41:57.631Z,41.07
2022-08-25T07:44:28.103Z,41.12
2022-08-25T07:46:56.450Z,41.27
2022-08-25T07:49:25.620Z,41.43
2022-08-25T07:52:03.207Z,41.62
2022-08-25T07:54:35.299Z,41.76
2022-08-25T07:57:04.607Z,41.51
2022-08-25T07:59:39.047Z,41.14
2022-08-25T08:02:18.572Z,40.83
2022-08-25T08:04:52.318Z,40.54
2022-08-25T08:07:41.832Z,40.22
2022-08-25T08:10:42.181Z,39.87
2022-08-25T08:13:00.716Z,39.53
2022-08-25T08:15:29.827Z,38.99
2022-08-25T08:17:59.439Z,38.21
2022-08-25T08:20:28.970Z,37.49
2022-08-25T08:22:57.179Z,36.89
2022-08-25T08:25:27.142Z,36.37
2022-08-25T08:27:55.960Z,35.83
2022-08-25T08:30:26.373Z,35.37
2022-08-25T08:33:11.740Z,34.94
2022-08-25T08:35:41.484Z,34.50
2022-08-25T08:38:14.514Z,34.19
2022-08-25T08:41:54.555Z,33.90
2022-08-25T08:44:43.170Z,33.59
2022-08-25T08:48:04.614Z,33.37
2022-08-25T08:51:12.734Z,33.21
2022-08-25T08:54:18.737Z,33.03
2022-08-25T08:56:49.292Z,32.83
2022-08-25T08:59:30.431Z,32.70
2022-08-25T09:02:00.705Z,32.61
2022-08-25T09:04:44.415Z,32.59
2022-08-25T09:11:47.030Z,32.35
2022-08-25T09:14:53.891Z,32.09
2022-08-25T09:17:54.835Z,31.83
2022-08-25T09:21:16.685Z,31.81
2022-08-25T09:24:38.099Z,31.88
2022-08-25T09:27:24.292Z,31.89
2022-08-25T09:30:05.439Z,31.79
2022-08-25T09:33:02.320Z,31.68
2022-08-25T09:35:32.818Z,31.60
2022-08-25T09:38:06.453Z,31.62
2022-08-25T09:40:38.495Z,31.66
2022-08-25T09:43:39.040Z,31.75
2022-08-25T09:46:18.167Z,31.85
2022-08-25T09:48:59.871Z,31.84
2022-08-25T09:51:38.338Z,31.83
2022-08-25T09:54:13.821Z,31.87
2022-08-25T09:56:56.330Z,31.86
2022-08-25T09:59:35.736Z,31.96
2022-08-25T10:02:27.147Z,32.06
2022-08-25T10:04:55.935Z,32.11
2022-08-25T10:07:30.125Z,32.09
2022-08-25T10:10:08.477Z,32.07
2022-08-25T10:12:43.201Z,32.11
2022-08-25T10:15:29.661Z,32.09
2022-08-25T10:18:26.109Z,32.13
2022-08-25T10:21:04.272Z,32.14
2022-08-25T10:23:50.156Z,32.19
2022-08-25T10:26:55.909Z,32.21
2022-08-25T10:29:38.317Z,32.18
2022-08-25T10:32:34.137Z,32.22
2022-08-25T10:35:12.032Z,32.24
2022-08-25T10:38:21.514Z,32.32
2022-08-25T10:41:04.294Z,32.39
2022-08-25T10:43:39.020Z,32.51
2022-08-25T10:46:27.946Z,32.59
2022-08-25T10:49:05.246Z,32.68
2022-08-25T10:52:02.250Z,32.85
2022-08-25T10:55:20.359Z,33.08
2022-08-25T10:58:33.797Z,33.24
2022-08-25T11:01:19.314Z,33.29
2022-08-25T11:04:02.260Z,33.31
2022-08-25T11:07:09.785Z,33.33
2022-08-25T11:09:41.676Z,33.34
2022-08-25T11:12:15.491Z,33.20
2022-08-25T11:14:49.259Z,32.89
2022-08-25T11:17:26.543Z,32.65
2022-08-25T11:19:59.209Z,32.44
2022-08-25T11:22:42.682Z,32.13
2022-08-25T11:25:30.219Z,31.89
2022-08-25T11:28:36.548Z,31.84
2022-08-25T11:31:05.072Z,31.89
2022-08-25T11:33:33.915Z,31.86
2022-08-25T11:36:37.393Z,31.74
2022-08-25T11:39:34.616Z,31.56
2022-08-25T11:42:49.233Z,31.44
2022-08-25T11:45:56.699Z,31.37
2022-08-25T11:49:08.262Z,31.39
2022-08-25T11:51:45.534Z,31.48
2022-08-25T11:54:49.414Z,31.55
2022-08-25T11:57:17.285Z,31.65
2022-08-25T11:59:52.264Z,31.79
2022-08-25T12:02:46.498Z,31.93
2022-08-25T12:05:17.573Z,31.98
2022-08-25T12:07:48.900Z,32.08
2022-08-25T12:10:29.035Z,32.19
2022-08-25T12:13:00.715Z,32.24
2022-08-25T12:15:31.452Z,32.27
2022-08-25T12:18:45.903Z,32.30
2022-08-25T12:21:14.598Z,32.21
2022-08-25T12:24:11.559Z,32.17
2022-08-25T12:26:47.740Z,32.02
2022-08-25T12:29:29.286Z,31.83
2022-08-25T12:32:04.629Z,31.58
2022-08-25T12:35:10.395Z,31.44
2022-08-25T12:37:57.915Z,31.36
2022-08-25T12:40:38.858Z,31.26
2022-08-25T12:43:27.803Z,31.12
2022-08-25T12:46:19.772Z,31.04
2022-08-25T12:49:02.664Z,31.02
2022-08-25T12:51:33.136Z,31.01
2022-08-25T12:54:37.485Z,30.99
2022-08-25T12:57:46.031Z,30.98
2022-08-25T13:00:45.780Z,31.00
2022-08-25T13:03:47.061Z,31.02
2022-08-25T13:06:27.070Z,31.08
2022-08-25T13:09:46.084Z,31.10
2022-08-25T13:12:16.595Z,31.09
2022-08-25T13:14:45.179Z,31.08
2022-08-25T13:17:13.023Z,31.04
2022-08-25T13:19:40.876Z,31.01
2022-08-25T13:22:15.999Z,30.97
2022-08-25T13:24:47.495Z,30.95
2022-08-25T13:27:24.207Z,30.97
2022-08-25T13:29:58.334Z,31.00
2022-08-25T13:32:35.645Z,31.03
2022-08-25T13:35:22.004Z,31.10
2022-08-25T13:37:50.322Z,31.24
2022-08-25T13:40:29.911Z,31.39
2022-08-25T13:43:02.825Z,31.58
2022-08-25T13:45:41.536Z,31.74
2022-08-25T13:48:22.410Z,31.83
2022-08-25T13:50:52.946Z,31.83
2022-08-25T13:53:26.114Z,31.78
2022-08-25T13:55:58.381Z,31.67
2022-08-25T13:58:38.668Z,31.53
2022-08-25T14:01:25.700Z,31.44
2022-08-25T14:04:39.908Z,31.41
2022-08-25T14:07:23.279Z,31.45
2022-08-25T14:09:52.293Z,31.49
2022-08-25T14:12:35.561Z,31.50
2022-08-25T14:15:18.600Z,31.53
2022-08-25T14:17:50.094Z,31.56
2022-08-25T14:20:27.262Z,31.50
2022-08-25T14:22:59.507Z,31.41
2022-08-25T14:25:30.399Z,31.36
2022-08-25T14:28:06.611Z,31.33
2022-08-25T14:30:39.321Z,31.35
2022-08-25T14:33:07.229Z,31.42
2022-08-25T14:35:35.030Z,31.45
2022-08-25T14:38:08.758Z,31.45
2022-08-25T14:40:37.338Z,31.49
2022-08-25T14:43:09.451Z,31.49
2022-08-25T14:45:41.745Z,31.45
2022-08-25T14:48:14.394Z,31.39
2022-08-25T14:50:42.419Z,31.32
2022-08-25T14:53:11.420Z,31.19
2022-08-25T14:55:39.735Z,31.15
2022-08-25T14:58:08.458Z,31.12
2022-08-25T15:00:43.795Z,31.05
2022-08-25T15:03:14.654Z,30.94
2022-08-25T15:05:42.507Z,30.82
2022-08-25T15:08:33.573Z,30.73
2022-08-25T15:11:08.858Z,30.64
2022-08-25T15:13:36.960Z,30.58
2022-08-25T15:16:05.361Z,30.52
2022-08-25T15:18:33.247Z,30.45
2022-08-25T15:21:01.117Z,30.41
2022-08-25T15:23:29.726Z,30.34
2022-08-25T15:25:57.637Z,30.32
2022-08-25T15:28:26.568Z,30.29
2022-08-25T15:30:54.446Z,30.26
2022-08-25T15:33:22.957Z,30.19
2022-08-25T15:35:50.971Z,30.13
2022-08-25T15:38:25.064Z,30.08
2022-08-25T15:41:11.011Z,30.02
2022-08-25T15:43:40.068Z,29.94
2022-08-25T15:46:08.240Z,29.88
2022-08-25T15:48:36.575Z,29.87
2022-08-25T15:51:08.893Z,29.87
2022-08-25T15:53:37.272Z,29.83
2022-08-25T15:56:07.138Z,29.79
2022-08-25T15:58:35.662Z,29.71
2022-08-25T16:01:09.405Z,29.61
2022-08-25T16:03:43.544Z,29.51
2022-08-25T16:06:17.553Z,29.45
2022-08-25T16:08:46.957Z,29.43
2022-08-25T16:11:21.975Z,29.42
2022-08-25T16:13:53.337Z,29.41
2022-08-25T16:16:29.548Z,29.35
2022-08-25T16:19:00.081Z,29.25
2022-08-25T16:21:42.253Z,29.09
2022-08-25T16:24:15.675Z,28.92
2022-08-25T16:26:48.457Z,28.79
2022-08-25T16:29:20.565Z,28.65
2022-08-25T16:31:53.267Z,28.50
2022-08-25T16:34:28.751Z,28.35
2022-08-25T16:37:02.189Z,28.18
2022-08-25T16:39:30.089Z,27.99
2022-08-25T16:42:01.536Z,27.79
2022-08-25T16:44:30.597Z,27.58
2022-08-25T16:46:58.786Z,27.39
2022-08-25T16:49:26.841Z,27.19
2022-08-25T16:51:56.947Z,27.00
2022-08-25T16:54:49.712Z,26.80
2022-08-25T16:57:27.678Z,26.59
2022-08-25T17:00:03.477Z,26.41
2022-08-25T17:02:34.913Z,26.24
2022-08-25T17:05:03.192Z,26.06
2022-08-25T17:07:33.579Z,25.88
2022-08-25T17:10:06.235Z,25.69
2022-08-25T17:12:34.452Z,25.49
2022-08-25T17:15:02.559Z,25.32
2022-08-25T17:17:36.167Z,25.17
2022-08-25T17:20:05.847Z,25.04
2022-08-25T17:22:34.623Z,24.90
2022-08-25T17:25:03.247Z,24.76
2022-08-25T17:27:34.767Z,24.58
2022-08-25T17:30:03.153Z,24.39
2022-08-25T17:32:34.774Z,24.23
2022-08-25T17:35:07.592Z,24.05
2022-08-25T17:37:39.139Z,23.88
2022-08-25T17:40:07.938Z,23.72
2022-08-25T17:42:39.063Z,23.57
2022-08-25T17:45:07.381Z,23.42
2022-08-25T17:47:36.638Z,23.27
2022-08-25T17:50:06.381Z,23.16
2022-08-25T17:52:34.418Z,23.04
2022-08-25T17:55:08.678Z,22.92
2022-08-25T17:57:40.513Z,22.80
2022-08-25T18:00:12.314Z,22.70
2022-08-25T18:02:41.444Z,22.62
2022-08-25T18:05:10.606Z,22.54
2022-08-25T18:07:45.186Z,22.46
2022-08-25T18:10:13.950Z,22.36
2022-08-25T18:12:45.413Z,22.26
2022-08-25T18:15:14.121Z,22.16
2022-08-25T18:18:05.487Z,22.04
2022-08-25T18:20:34.802Z,21.91
2022-08-25T18:23:09.433Z,21.81
2022-08-25T18:25:41.902Z,21.71
2022-08-25T18:28:15.420Z,21.62
2022-08-25T18:30:47.139Z,21.55
2022-08-25T18:33:22.357Z,21.46
2022-08-25T18:35:50.979Z,21.37
2022-08-25T18:38:42.913Z,21.27
2022-08-25T18:41:14.560Z,21.16
2022-08-25T18:43:42.939Z,21.06
2022-08-25T18:46:13.705Z,20.96
2022-08-25T18:48:46.352Z,20.86
2022-08-25T18:51:23.242Z,20.76
2022-08-25T18:54:00.989Z,20.66
2022-08-25T18:56:36.819Z,20.55
2022-08-25T18:59:09.975Z,20.46
2022-08-25T19:01:45.152Z,20.37
2022-08-25T19:04:15.357Z,20.28
2022-08-25T19:06:47.091Z,20.19
2022-08-25T19:09:25.595Z,20.09
2022-08-25T19:11:58.279Z,20.01
2022-08-25T19:14:43.756Z,19.94
2022-08-25T19:17:17.734Z,19.87
2022-08-25T19:19:53.291Z,19.78
2022-08-25T19:22:41.132Z,19.71
2022-08-25T19:25:17.103Z,19.61
2022-08-25T19:27:53.052Z,19.51
2022-08-25T19:30:27.786Z,19.44
2022-08-25T19:32:56.333Z,19.36
2022-08-25T19:35:44.600Z,19.30
2022-08-25T19:38:35.550Z,19.21
2022-08-25T19:41:14.131Z,19.11
2022-08-25T19:43:56.185Z,19.05
2022-08-25T19:46:35.802Z,18.99
2022-08-25T19:49:16.061Z,18.90
2022-08-25T19:51:50.622Z,18.82
2022-08-25T19:54:35.226Z,18.75
2022-08-25T19:57:05.358Z,18.69
2022-08-25T19:59:47.503Z,18.66
2022-08-25T20:02:26.776Z,18.63
2022-08-25T20:05:00.076Z,18.60
2022-08-25T20:07:30.271Z,18.55
2022-08-25T20:10:03.665Z,18.51
2022-08-25T20:12:32.483Z,18.46
2022-08-25T20:15:07.085Z,18.40
2022-08-25T20:17:41.810Z,18.34
2022-08-25T20:20:15.557Z,18.27
2022-08-25T20:22:45.435Z,18.21
2022-08-25T20:25:26.802Z,18.14
2022-08-25T20:28:12.653Z,18.07
2022-08-25T20:30:47.520Z,17.97
2022-08-25T20:33:22.554Z,17.90
2022-08-25T20:35:57.894Z,17.81
2022-08-25T20:38:31.291Z,17.73
2022-08-25T20:41:00.991Z,17.67
2022-08-25T20:43:30.401Z,17.62
2022-08-25T20:46:02.936Z,18.06
2022-08-25T20:48:35.451Z,19.05
2022-08-25T20:51:06.800Z,19.75
2022-08-25T20:53:44.517Z,20.23
2022-08-25T20:56:21.882Z,20.59
2022-08-25T20:58:49.849Z,20.87
2022-08-25T21:01:37.956Z,21.07
2022-08-25T21:04:20.980Z,21.28
2022-08-25T21:06:51.483Z,21.45
2022-08-25T21:09:25.968Z,21.44
2022-08-25T21:11:56.448Z,20.80
2022-08-25T21:14:33.766Z,20.16
2022-08-25T21:17:01.825Z,19.69
2022-08-25T21:19:31.860Z,19.32
2022-08-25T21:22:08.643Z,18.96
2022-08-25T21:24:46.997Z,18.61
2022-08-25T21:27:16.903Z,18.36
2022-08-25T21:29:54.716Z,18.14
2022-08-25T21:32:26.416Z,17.94
2022-08-25T21:34:58.379Z,17.78
2022-08-25T21:37:26.850Z,17.62
2022-08-25T21:39:56.400Z,17.47
2022-08-25T21:42:25.251Z,17.32
2022-08-25T21:44:53.730Z,17.21
2022-08-25T21:47:25.076Z,17.10
2022-08-25T21:50:05.844Z,17.00
2022-08-25T21:52:34.250Z,16.89
2022-08-25T21:55:02.394Z,16.79
2022-08-25T21:57:30.875Z,16.67
2022-08-25T22:00:05.863Z,16.84
2022-08-25T22:02:39.847Z,17.78
2022-08-25T22:05:12.802Z,18.56
2022-08-25T22:07:44.323Z,19.05
2022-08-25T22:10:16.559Z,19.41
2022-08-25T22:12:49.025Z,19.65
2022-08-25T22:15:23.518Z,19.83
2022-08-25T22:18:02.850Z,20.00
2022-08-25T22:20:39.212Z,20.17
2022-08-25T22:23:20.250Z,20.31
2022-08-25T22:25:48.782Z,20.47
2022-08-25T22:28:23.802Z,20.58
2022-08-25T22:30:52.235Z,20.15
2022-08-25T22:33:20.255Z,19.46
2022-08-25T22:35:54.324Z,18.85
2022-08-25T22:38:28.575Z,18.34
2022-08-25T22:41:24.310Z,17.98
2022-08-25T22:43:58.366Z,17.61
2022-08-25T22:46:35.185Z,17.30
2022-08-25T22:49:12.195Z,17.03
2022-08-25T22:51:40.646Z,16.80
2022-08-25T22:54:09.588Z,16.62
2022-08-25T22:56:43.338Z,16.44
2022-08-25T22:59:15.371Z,16.29
2022-08-25T23:01:44.113Z,16.16
2022-08-25T23:04:14.909Z,16.02
2022-08-25T23:06:51.602Z,15.88
2022-08-25T23:09:30.315Z,16.15
2022-08-25T23:12:00.940Z,17.23
2022-08-25T23:14:38.307Z,17.90
2022-08-25T23:17:13.063Z,18.38
2022-08-25T23:19:41.244Z,18.65
2022-08-25T23:22:16.153Z,18.86
2022-08-25T23:24:47.818Z,19.07
2022-08-25T23:27:25.622Z,19.29
2022-08-25T23:29:55.439Z,19.40
2022-08-25T23:32:29.855Z,19.49
2022-08-25T23:35:32.106Z,19.21
2022-08-25T23:38:16.131Z,18.35
2022-08-25T23:40:44.859Z,17.70
2022-08-25T23:43:13.885Z,17.23
2022-08-25T23:45:50.887Z,16.85
2022-08-25T23:48:21.461Z,16.54
2022-08-25T23:50:54.087Z,16.29
2022-08-25T23:53:22.729Z,16.08
2022-08-25T23:55:56.191Z,15.90
2022-08-25T23:58:25.729Z,15.71
